createdAt,value
2022-08-31T00:03:54.304Z,14.82
2022-08-31T00:08:57.604Z,16.17
2022-08-31T00:14:01.831Z,16.90
2022-08-31T00:19:05.369Z,14.43
2022-08-31T00:24:07.376Z,18.65
2022-08-31T00:29:09.250Z,19.45
2022-08-31T00:34:10.983Z,16.60
2022-08-31T00:39:14.103Z,17.67
2022-08-31T00:44:15.913Z,14.77
2022-08-31T00:49:30.026Z,14.10
2022-08-31T00:54:35.649Z,15.00
2022-08-31T00:59:39.642Z,10.43
2022-08-31T01:04:41.224Z,8.55
2022-08-31T01:09:55.378Z,9.93
2022-08-31T01:14:59.555Z,9.82
2022-08-31T01:20:24.747Z,10.02
2022-08-31T01:25:33.418Z,9.05
2022-08-31T01:30:36.604Z,13.27
2022-08-31T01:35:40.251Z,9.98
2022-08-31T01:41:02.282Z,9.50
2022-08-31T01:46:10.116Z,9.55
2022-08-31T01:51:15.036Z,10.23
2022-08-31T01:56:24.689Z,8.43
2022-08-31T02:01:36.639Z,9.70
2022-08-31T02:06:45.912Z,9.68
2022-08-31T02:11:47.666Z,9.47
2022-08-31T02:16:49.350Z,8.10
2022-08-31T02:21:51.215Z,10.55
2022-08-31T02:26:53.988Z,9.27
2022-08-31T02:31:56.940Z,9.13
2022-08-31T02:36:58.804Z,11.43
2022-08-31T02:42:00.789Z,12.73
2022-08-31T02:47:02.485Z,9.80
2022-08-31T02:52:31.396Z,10.65
2022-08-31T02:57:33.167Z,13.05
2022-08-31T03:02:35.958Z,9.85
2022-08-31T03:07:38.572Z,12.27
2022-08-31T03:12:40.200Z,9.88
2022-08-31T03:17:42.405Z,10.88
2022-08-31T03:22:45.816Z,9.43
2022-08-31T03:27:48.570Z,9.57
2022-08-31T03:32:51.102Z,9.20
2022-08-31T03:37:54.145Z,8.32
2022-08-31T03:42:57.979Z,8.18
2022-08-31T03:48:01.053Z,7.57
2022-08-31T03:53:04.787Z,12.00
2022-08-31T03:58:06.902Z,12.02
2022-08-31T04:03:08.579Z,14.05
2022-08-31T04:08:31.379Z,17.15
2022-08-31T04:14:02.283Z,16.30
2022-08-31T04:19:15.914Z,22.35
2022-08-31T04:24:32.172Z,26.23
2022-08-31T04:29:34.790Z,21.90
2022-08-31T04:34:36.379Z,25.92
2022-08-31T04:39:50.388Z,26.42
2022-08-31T04:44:52.646Z,39.75
2022-08-31T04:49:54.255Z,30.58
2022-08-31T04:54:56.017Z,30.27
2022-08-31T04:59:57.717Z,30.05
2022-08-31T05:05:17.985Z,32.92
2022-08-31T05:10:21.597Z,33.38
2022-08-31T05:15:23.347Z,28.27
2022-08-31T05:20:25.307Z,31.65
2022-08-31T05:25:27.472Z,32.97
2022-08-31T05:30:29.098Z,34.10
2022-08-31T05:35:40.839Z,32.42
2022-08-31T05:40:42.477Z,27.25
2022-08-31T05:45:44.495Z,27.60
2022-08-31T05:50:46.281Z,25.58
2022-08-31T05:55:47.851Z,27.52
2022-08-31T06:00:49.426Z,25.10
2022-08-31T06:06:09.841Z,22.77
2022-08-31T06:11:15.730Z,21.27
2022-08-31T06:16:18.192Z,22.95
2022-08-31T06:21:23.630Z,17.27
2022-08-31T06:26:28.946Z,15.70
2022-08-31T06:31:35.976Z,16.98
2022-08-31T06:36:38.413Z,17.92
2022-08-31T06:42:15.150Z,18.45
2022-08-31T06:47:35.209Z,17.33
2022-08-31T06:52:39.004Z,20.63
2022-08-31T06:57:54.465Z,16.35
2022-08-31T07:03:21.877Z,16.13
2022-08-31T07:08:24.103Z,17.52
2022-08-31T07:13:26.653Z,15.88
2022-08-31T07:18:28.335Z,23.08
2022-08-31T07:23:30.210Z,22.63
2022-08-31T07:28:43.253Z,19.05
2022-08-31T07:33:45.948Z,19.60
2022-08-31T07:39:06.518Z,18.92
2022-08-31T07:44:11.243Z,18.38
2022-08-31T07:49:13.932Z,20.92
2022-08-31T07:54:20.601Z,18.90
2022-08-31T07:59:42.465Z,21.02
2022-08-31T08:04:44.176Z,22.73
2022-08-31T08:10:09.205Z,18.88
2022-08-31T08:15:40.807Z,20.40
2022-08-31T08:20:48.679Z,17.45
2022-08-31T08:25:51.590Z,18.40
2022-08-31T08:31:11.567Z,16.42
2022-08-31T08:36:20.202Z,13.70
2022-08-31T08:41:25.303Z,15.38
2022-08-31T08:46:40.167Z,13.32
2022-08-31T08:51:43.702Z,10.65
2022-08-31T08:56:49.074Z,14.13
2022-08-31T09:02:06.583Z,11.90
2022-08-31T09:07:30.824Z,11.50
2022-08-31T09:12:44.431Z,10.68
2022-08-31T09:17:52.029Z,9.90
2022-08-31T09:22:56.051Z,8.45
2022-08-31T09:28:01.619Z,10.98
2022-08-31T09:33:04.054Z,11.73
2022-08-31T09:38:11.119Z,9.55
2022-08-31T09:43:24.959Z,16.15
2022-08-31T09:48:53.251Z,13.93
2022-08-31T09:54:18.227Z,15.75
2022-08-31T09:59:40.232Z,21.92
2022-08-31T10:04:57.447Z,24.40
2022-08-31T10:10:28.069Z,21.50
2022-08-31T10:15:44.947Z,24.13
2022-08-31T10:20:56.891Z,27.55
2022-08-31T10:26:05.566Z,23.48
2022-08-31T10:31:21.024Z,26.35
2022-08-31T10:36:25.254Z,19.58
2022-08-31T10:41:32.935Z,27.50
2022-08-31T10:46:35.597Z,14.80
2022-08-31T10:51:49.101Z,21.20
2022-08-31T10:57:09.479Z,26.02
2022-08-31T11:02:26.009Z,18.17
2022-08-31T11:07:41.186Z,19.70
2022-08-31T11:12:55.128Z,19.52
2022-08-31T11:18:13.535Z,21.08
2022-08-31T11:23:33.432Z,16.67
2022-08-31T11:28:51.852Z,15.48
2022-08-31T11:39:38.025Z,19.38
2022-08-31T11:44:39.635Z,16.40
2022-08-31T11:49:50.270Z,19.95
2022-08-31T11:54:52.639Z,22.20
2022-08-31T11:59:56.016Z,21.48
2022-08-31T12:05:03.358Z,17.42
2022-08-31T12:10:14.107Z,15.75
2022-08-31T12:15:31.946Z,16.45
2022-08-31T12:21:16.866Z,13.48
2022-08-31T12:26:46.530Z,16.40
2022-08-31T12:32:08.708Z,14.57
2022-08-31T12:37:21.285Z,15.80
2022-08-31T12:42:23.784Z,14.57
2022-08-31T12:47:40.273Z,16.02
2022-08-31T12:52:53.661Z,15.52
2022-08-31T12:58:13.931Z,16.48
2022-08-31T13:03:21.540Z,18.33
2022-08-31T13:08:25.864Z,17.13
2022-08-31T13:13:29.236Z,12.82
2022-08-31T13:18:31.306Z,13.38
2022-08-31T13:23:42.927Z,12.23
2022-08-31T13:28:50.180Z,18.98
2022-08-31T13:33:53.129Z,13.93
2022-08-31T13:38:54.707Z,14.85
2022-08-31T13:44:02.559Z,14.95
2022-08-31T13:49:20.741Z,13.87
2022-08-31T13:54:34.007Z,15.25
2022-08-31T13:59:38.711Z,14.32
2022-08-31T14:04:49.142Z,17.58
2022-08-31T14:10:02.024Z,15.43
2022-08-31T14:15:08.397Z,13.98
2022-08-31T14:20:33.910Z,14.55
2022-08-31T14:25:35.530Z,16.00
2022-08-31T14:30:37.208Z,12.68
2022-08-31T14:35:40.106Z,13.20
2022-08-31T14:40:43.834Z,13.07
2022-08-31T14:45:45.511Z,14.63
2022-08-31T14:50:47.092Z,16.08
2022-08-31T14:55:48.798Z,17.10
2022-08-31T15:00:53.708Z,15.75
2022-08-31T15:06:03.314Z,16.48
2022-08-31T15:11:06.135Z,14.57
2022-08-31T15:16:10.873Z,14.50
2022-08-31T15:21:12.552Z,13.00
2022-08-31T15:26:16.984Z,16.38
2022-08-31T15:31:25.388Z,12.88
2022-08-31T15:36:27.771Z,15.20
2022-08-31T15:41:29.883Z,13.27
2022-08-31T15:46:51.681Z,13.48
2022-08-31T15:51:54.009Z,13.80
2022-08-31T15:56:55.712Z,14.60
2022-08-31T16:01:57.543Z,11.88
2022-08-31T16:07:00.977Z,14.57
2022-08-31T16:12:02.846Z,14.13
2022-08-31T16:17:09.459Z,14.25
2022-08-31T16:22:11.250Z,10.32
2022-08-31T16:27:16.445Z,11.18
2022-08-31T16:32:19.268Z,11.43
2022-08-31T16:37:21.264Z,13.93
2022-08-31T16:42:22.901Z,13.68
2022-08-31T16:47:24.501Z,13.30
2022-08-31T16:52:27.410Z,13.07
2022-08-31T16:57:32.545Z,11.13
2022-08-31T17:02:34.353Z,13.65
2022-08-31T17:07:36.803Z,10.80
2022-08-31T17:12:42.011Z,12.65
2022-08-31T17:17:47.953Z,12.35
2022-08-31T17:22:50.874Z,12.20
2022-08-31T17:27:56.159Z,11.00
2022-08-31T17:33:01.439Z,13.43
2022-08-31T17:38:03.325Z,12.27
2022-08-31T17:43:04.954Z,11.80
2022-08-31T17:48:06.615Z,12.00
2022-08-31T17:53:08.307Z,14.52
2022-08-31T17:58:11.202Z,12.55
2022-08-31T18:03:12.819Z,14.50
2022-08-31T18:08:15.090Z,14.32
2022-08-31T18:13:16.744Z,14.35
2022-08-31T18:18:18.739Z,14.18
2022-08-31T18:23:20.591Z,12.80
2022-08-31T18:28:22.277Z,13.43
2022-08-31T18:33:24.627Z,14.73
2022-08-31T18:38:27.283Z,16.05
2022-08-31T18:43:47.290Z,15.80
2022-08-31T18:48:54.200Z,19.63
2022-08-31T18:53:55.975Z,19.02
2022-08-31T18:58:58.116Z,26.00
2022-08-31T19:04:02.475Z,19.55
2022-08-31T19:09:04.213Z,19.80
2022-08-31T19:14:05.821Z,20.02
2022-08-31T19:19:08.161Z,20.33
2022-08-31T19:24:13.214Z,24.33
2022-08-31T19:29:22.814Z,21.55
2022-08-31T19:39:31.771Z,20.73
2022-08-31T19:50:13.616Z,24.65
2022-08-31T19:55:15.586Z,25.35
2022-08-31T20:00:17.346Z,28.17
2022-08-31T20:05:20.885Z,26.38
2022-08-31T20:10:24.936Z,28.15
2022-08-31T20:15:36.928Z,31.53
2022-08-31T20:20:48.287Z,31.30
2022-08-31T20:25:55.493Z,32.28
2022-08-31T20:31:00.029Z,33.25
2022-08-31T20:36:11.601Z,31.50
2022-08-31T20:41:14.193Z,34.47
2022-08-31T20:46:34.237Z,33.63
2022-08-31T20:51:40.465Z,36.53
2022-08-31T20:56:43.042Z,36.95
2022-08-31T21:01:45.962Z,37.00
2022-08-31T21:06:47.621Z,47.03
2022-08-31T21:11:49.990Z,42.95
2022-08-31T21:16:52.871Z,43.38
2022-08-31T21:22:00.833Z,38.95
2022-08-31T21:27:05.726Z,44.00
2022-08-31T21:32:10.258Z,45.10
2022-08-31T21:37:12.146Z,49.90
2022-08-31T21:42:13.700Z,51.58
2022-08-31T21:47:15.279Z,45.03
2022-08-31T21:52:17.208Z,47.20
2022-08-31T21:57:18.880Z,38.95
2022-08-31T22:02:20.479Z,37.65
2022-08-31T22:07:22.045Z,36.08
2022-08-31T22:12:25.205Z,32.65
2022-08-31T22:17:48.251Z,30.27
2022-08-31T22:22:48.645Z,29.73
2022-08-31T22:27:51.302Z,31.17
2022-08-31T22:32:53.839Z,28.48
2022-08-31T22:37:55.402Z,31.98
2022-08-31T22:42:58.581Z,30.27
2022-08-31T22:48:00.569Z,29.25
2022-08-31T22:53:02.141Z,28.02
2022-08-31T22:58:04.571Z,29.42
2022-08-31T23:03:06.647Z,26.30
2022-08-31T23:08:08.422Z,23.52
2022-08-31T23:13:10.054Z,21.90
2022-08-31T23:18:13.388Z,23.00
2022-08-31T23:23:15.121Z,21.95
2022-08-31T23:28:16.691Z,20.48
2022-08-31T23:33:19.914Z,19.02
2022-08-31T23:38:23.060Z,20.35
2022-08-31T23:43:25.924Z,21.30
2022-08-31T23:48:28.827Z,22.55
2022-08-31T23:53:30.363Z,20.70
2022-08-31T23:58:36.127Z,22.20
